Flag for USA

Past Weather in 30°20'24.6"N, 97°57'59.6"W, USA — Yesterday and Last 2 Weeks

Currently: 76 °F. Overcast. (Weather station: Camp Mabry / Austin City, USA). See more current weather

Past Weather in 30°20'24.6"N, 97°57'59.6"W — Graph

°F

30°20'24.6"N, 97°57'59.6"W Temperature Yesterday

Maximum temperature yesterday: 97 °F (at 2:51 pm)
Minimum temperature yesterday: 73 °F (at 5:51 am)
Average temperature yesterday: 82 °F

High & Low Weather Summary for the Past Weeks

 TemperatureHumidityPressure
High98 °F (May 16, 3:51 pm)94% (May 6, 2:08 am)30.11 "Hg (May 6, 2:08 am)
Low60 °F (May 6, 5:14 am)21% (May 16, 3:51 pm)29.57 "Hg (May 8, 5:51 pm)
Average81 °F64%29.85 "Hg
* Reported May 5 1:31 am — May 20 1:51 am, 30°20'24.6"N, 97°57'59.6"W. Weather by CustomWeather, © 2022

Note: Actual official high and low records may vary slightly from our data, if they occured in-between our weather recording intervals... More about our weather records

30°20'24.6"N, 97°57'59.6"W Weather History for the Previous 24 Hours

Scroll right to see more
 ConditionsComfort  
Time TempWeatherWind HumidityBarometerVisibility
1:51 am
Fri, May 20
77 °FOvercast.9 mph74%29.61 "Hg10 mi
12:51 am78 °FOvercast.8 mph71%29.63 "Hg10 mi
11:51 pm
Thu, May 19
78 °FOvercast.9 mph69%29.64 "Hg10 mi
11:23 pm78 °FPassing clouds.8 mph69%29.70 "Hg10 mi
10:51 pm79 °FClear.9 mph67%29.66 "Hg10 mi
9:51 pm82 °FClear.12 mph58%29.64 "Hg10 mi
8:51 pm85 °FClear.8 mph50%29.62 "Hg10 mi
7:51 pm88 °FSunny.7 mph43%29.61 "Hg10 mi
5:51 pm96 °FSunny.N/A31%29.59 "Hg10 mi
4:51 pm97 °FSunny.10 mph29%29.61 "Hg10 mi
3:51 pm97 °FSunny.10 mph30%29.64 "Hg10 mi
2:51 pm97 °FSunny.7 mph30%29.67 "Hg10 mi
1:51 pm94 °FSunny.7 mph35%29.70 "Hg10 mi
12:51 pm91 °FSunny.12 mph38%29.73 "Hg10 mi
11:51 am89 °FSunny.N/A42%29.76 "Hg10 mi
10:51 am84 °FSunny.N/A51%29.78 "Hg10 mi
9:51 am81 °FPassing clouds.6 mph60%29.80 "Hg10 mi
8:51 am77 °FPartly sunny.5 mph69%29.80 "Hg10 mi
8:21 am75 °FPartly sunny.N/A74%29.84 "Hg10 mi
7:51 am73 °FScattered clouds.7 mph79%29.80 "Hg10 mi
7:00 am73 °FScattered clouds.5 mph79%29.84 "Hg10 mi
5:51 am73 °FPassing clouds.8 mph79%29.77 "Hg10 mi
4:51 am74 °FPassing clouds.9 mph76%29.76 "Hg10 mi
3:51 am74 °FPassing clouds.6 mph76%29.77 "Hg10 mi
Weather by CustomWeather, © 2022

See weather overview